Time;durP1;ratioP1;P1;durP2;ratioP2;P2;SDS_P1;SDS_P2;PMS_P1;PMS_P2;Temp;Humidity;BMP_temperature;BMP_pressure;BME280_temperature;BME280_humidity;BME280_pressure;Samples;Min_cycle;Max_cycle;Signal;HPM_P1;HPM_P2
2022/01/09 00:01:25;;;;;;;;;;;1.30;77.10;;;;;;4997425;28;19910;-90
2022/01/09 00:03:51;;;;;;;;;;;1.30;77.10;;;;;;4997668;28;19910;-90
2022/01/09 00:06:16;;;;;;;;;;;1.40;76.70;;;;;;4998072;28;19917;-90
2022/01/09 00:08:44;;;;;;;;;;;1.40;76.80;;;;;;4997843;28;20033;-90
2022/01/09 00:11:10;;;;;;;;;;;1.40;76.50;;;;;;4998018;28;20348;-90
2022/01/09 00:13:35;;;;;;;;;;;1.40;76.30;;;;;;4997403;28;19909;-90
2022/01/09 00:16:01;;;;;;;;;;;1.40;76.70;;;;;;4997683;28;19910;-90
2022/01/09 00:18:26;;;;;;;;;;;1.40;76.10;;;;;;4997278;28;19949;-90
2022/01/09 00:20:52;;;;;;;;;;;1.40;76.30;;;;;;4997546;28;19909;-90
2022/01/09 00:23:18;;;;;;;;;;;1.40;76.40;;;;;;4998064;28;19910;-90
2022/01/09 00:25:43;;;;;;;;;;;1.40;76.10;;;;;;4997479;28;20379;-90
2022/01/09 00:28:09;;;;;;;;;;;1.40;76.00;;;;;;4997406;28;19957;-90
2022/01/09 00:30:34;;;;;;;;;;;1.40;76.00;;;;;;5014984;28;19920;-90
2022/01/09 00:33:00;;;;;;;;;;;1.50;76.30;;;;;;4997251;28;19916;-90
2022/01/09 00:35:26;;;;;;;;;;;1.50;76.20;;;;;;4998227;28;20047;-91
2022/01/09 00:37:51;;;;;;;;;;;1.50;75.60;;;;;;5001830;28;19952;-90
2022/01/09 00:40:17;;;;;;;;;;;1.50;76.00;;;;;;5001423;28;20399;-90
2022/01/09 00:42:43;;;;;;;;;;;1.50;75.20;;;;;;5001675;28;19913;-90
2022/01/09 00:45:09;;;;;;;;;;;1.50;75.70;;;;;;5018697;28;20283;-90
2022/01/09 00:47:35;;;;;;;;;;;1.50;75.50;;;;;;5001170;28;19913;-90
2022/01/09 00:50:01;;;;;;;;;;;1.40;75.20;;;;;;5018207;28;19914;-90
2022/01/09 00:52:26;;;;;;;;;;;1.40;75.60;;;;;;5001413;28;20276;-90
2022/01/09 00:54:52;;;;;;;;;;;1.40;76.10;;;;;;5000861;28;19959;-90
2022/01/09 00:57:17;;;;;;;;;;;1.30;76.70;;;;;;5000908;28;19910;-90
2022/01/09 00:59:43;;;;;;;;;;;1.30;77.40;;;;;;5000697;28;19916;-90
2022/01/09 01:02:08;;;;;;;;;;;1.30;78.90;;;;;;5000630;28;20335;-90
2022/01/09 01:04:34;;;;;;;;;;;1.20;79.80;;;;;;5000960;28;19920;-90
2022/01/09 01:07:00;;;;;;;;;;;1.20;79.90;;;;;;5018262;28;20269;-90
2022/01/09 01:09:30;;;;;;;;;;;1.10;80.30;;;;;;5000605;28;19914;-90
2022/01/09 01:11:56;;;;;;;;;;;1.10;81.10;;;;;;5000718;28;19910;-90
2022/01/09 01:14:23;;;;;;;;;;;1.10;82.30;;;;;;5000382;28;19910;-90
2022/01/09 01:16:49;;;;;;;;;;;1.00;83.40;;;;;;5000609;28;19916;-90
2022/01/09 01:19:15;;;;;;;;;;;0.90;85.80;;;;;;5001091;28;20280;-90
2022/01/09 01:21:40;;;;;;;;;;;0.90;84.50;;;;;;5000426;28;19917;-90
2022/01/09 01:24:06;;;;;;;;;;;0.80;87.00;;;;;;5000594;28;19913;-90
2022/01/09 01:26:31;;;;;;;;;;;0.80;85.60;;;;;;5000664;28;19983;-90
2022/01/09 01:28:57;;;;;;;;;;;0.80;85.20;;;;;;5017946;28;19937;-90
2022/01/09 01:31:23;;;;;;;;;;;0.70;87.20;;;;;;5000300;28;19913;-90
2022/01/09 01:33:48;;;;;;;;;;;0.70;87.60;;;;;;5000609;28;19909;-90
2022/01/09 01:36:14;;;;;;;;;;;0.70;89.00;;;;;;5000511;28;19925;-90
2022/01/09 01:38:39;;;;;;;;;;;0.70;90.00;;;;;;5000240;28;20004;-90
2022/01/09 01:41:05;;;;;;;;;;;0.80;89.30;;;;;;5000631;28;20349;-90
2022/01/09 01:43:31;;;;;;;;;;;0.80;90.00;;;;;;5002213;28;20276;-90
2022/01/09 01:45:59;;;;;;;;;;;0.80;90.20;;;;;;5005188;28;19910;-90
2022/01/09 01:48:25;;;;;;;;;;;0.80;90.40;;;;;;5002651;28;19925;-89
2022/01/09 01:50:51;;;;;;;;;;;0.90;89.10;;;;;;5001034;28;19918;-90
2022/01/09 01:53:19;;;;;;;;;;;0.80;89.60;;;;;;5000430;28;19909;-90
2022/01/09 01:55:48;;;;;;;;;;;0.80;90.00;;;;;;4999904;28;20431;-90
2022/01/09 01:58:13;;;;;;;;;;;0.80;90.50;;;;;;4999968;28;19909;-90
2022/01/09 02:00:40;;;;;;;;;;;0.70;91.40;;;;;;4999737;28;19913;-90
2022/01/09 02:03:06;;;;;;;;;;;0.80;90.50;;;;;;4999866;28;20051;-90
2022/01/09 02:05:32;;;;;;;;;;;0.80;90.90;;;;;;5003772;28;19936;-90
2022/01/09 02:08:00;;;;;;;;;;;0.80;91.30;;;;;;5005238;28;19967;-90
2022/01/09 02:10:26;;;;;;;;;;;0.80;90.80;;;;;;5022283;28;19918;-90
2022/01/09 02:12:55;;;;;;;;;;;0.70;91.40;;;;;;5021222;28;20265;-90
2022/01/09 02:15:35;;;;;;;;;;;0.70;91.20;;;;;;4999535;28;19910;-90
2022/01/09 02:18:08;;;;;;;;;;;0.70;91.60;;;;;;5000107;28;19909;-90
2022/01/09 02:20:34;;;;;;;;;;;0.70;92.10;;;;;;5017092;28;19909;-90
2022/01/09 02:23:00;;;;;;;;;;;0.60;91.90;;;;;;4999554;28;20280;-90
2022/01/09 02:25:26;;;;;;;;;;;0.70;91.80;;;;;;4999678;28;19913;-90
2022/01/09 02:27:52;;;;;;;;;;;0.70;91.70;;;;;;4999014;28;20258;-90
2022/01/09 02:30:18;;;;;;;;;;;0.70;91.90;;;;;;5017027;28;20005;-90
2022/01/09 02:32:43;;;;;;;;;;;0.70;91.90;;;;;;5017031;28;19948;-90
2022/01/09 02:35:09;;;;;;;;;;;0.70;92.00;;;;;;4999519;28;19913;-90
2022/01/09 02:37:34;;;;;;;;;;;0.70;92.30;;;;;;4999471;28;20372;-90
2022/01/09 02:40:00;;;;;;;;;;;0.70;92.60;;;;;;5016715;28;20340;-90
2022/01/09 02:42:28;;;;;;;;;;;0.70;92.60;;;;;;4998847;28;19944;-90
2022/01/09 02:44:57;;;;;;;;;;;0.70;92.50;;;;;;4998833;28;19910;-90
2022/01/09 02:47:25;;;;;;;;;;;0.70;92.80;;;;;;4999312;28;19925;-90
2022/01/09 02:49:53;;;;;;;;;;;0.70;92.40;;;;;;4999170;28;19914;-90
2022/01/09 02:55:12;;;;;;;;;;;0.60;93.00;;;;;;5016385;28;19924;-90
2022/01/09 02:57:41;;;;;;;;;;;0.60;93.70;;;;;;4999396;28;19910;-90
2022/01/09 03:00:11;;;;;;;;;;;0.60;94.10;;;;;;4998554;28;19909;-89
2022/01/09 03:02:37;;;;;;;;;;;0.60;94.10;;;;;;4998628;28;19910;-90
2022/01/09 03:05:03;;;;;;;;;;;0.60;94.40;;;;;;4998481;28;19983;-90
2022/01/09 03:07:28;;;;;;;;;;;0.60;94.30;;;;;;4998238;28;19924;-90
2022/01/09 03:09:54;;;;;;;;;;;0.50;94.70;;;;;;4998566;28;19920;-90
2022/01/09 03:12:20;;;;;;;;;;;0.50;95.00;;;;;;4998247;28;20052;-90
2022/01/09 03:14:46;;;;;;;;;;;0.40;95.00;;;;;;4998510;28;19936;-90
2022/01/09 03:17:11;;;;;;;;;;;0.40;95.30;;;;;;4998037;28;19909;-90
2022/01/09 03:19:37;;;;;;;;;;;0.40;95.90;;;;;;4998218;28;19910;-90
2022/01/09 03:22:03;;;;;;;;;;;0.40;96.00;;;;;;4998032;28;19925;-90
2022/01/09 03:24:28;;;;;;;;;;;0.30;96.40;;;;;;4998436;28;19910;-90
2022/01/09 03:26:54;;;;;;;;;;;0.40;96.20;;;;;;4998365;28;19913;-90
2022/01/09 03:29:19;;;;;;;;;;;0.40;96.50;;;;;;5015527;28;20014;-90
2022/01/09 03:31:45;;;;;;;;;;;0.40;96.50;;;;;;4998040;28;20432;-90
2022/01/09 03:34:10;;;;;;;;;;;0.30;96.70;;;;;;4998015;28;19963;-90
2022/01/09 03:36:36;;;;;;;;;;;0.30;97.00;;;;;;5015197;28;20004;-90
2022/01/09 03:39:01;;;;;;;;;;;0.30;97.30;;;;;;4997855;28;19910;-89
2022/01/09 03:41:27;;;;;;;;;;;0.30;97.40;;;;;;4997651;28;19913;-90
2022/01/09 03:43:52;;;;;;;;;;;0.30;98.10;;;;;;4997732;28;19920;-89
2022/01/09 03:46:18;;;;;;;;;;;0.30;98.00;;;;;;4997575;28;20004;-89
2022/01/09 03:48:43;;;;;;;;;;;0.40;97.80;;;;;;4997504;28;20020;-90
2022/01/09 03:51:10;;;;;;;;;;;0.30;97.80;;;;;;4997255;28;20273;-90
2022/01/09 03:53:36;;;;;;;;;;;0.30;97.90;;;;;;4997343;28;19909;-90
2022/01/09 03:56:02;;;;;;;;;;;0.30;98.50;;;;;;4997725;28;19909;-90
2022/01/09 03:58:27;;;;;;;;;;;0.40;98.70;;;;;;4997620;28;19917;-90
2022/01/09 04:00:53;;;;;;;;;;;0.40;98.40;;;;;;4997849;28;19910;-90
2022/01/09 04:03:18;;;;;;;;;;;0.30;98.80;;;;;;4997314;28;19909;-90
2022/01/09 04:05:44;;;;;;;;;;;0.40;98.70;;;;;;4997153;28;19910;-90
2022/01/09 04:08:10;;;;;;;;;;;0.40;98.80;;;;;;4997370;28;19914;-90
2022/01/09 04:10:40;;;;;;;;;;;0.40;98.80;;;;;;4997421;28;19956;-90
2022/01/09 04:13:06;;;;;;;;;;;0.30;98.70;;;;;;4997474;28;19947;-90
2022/01/09 04:15:32;;;;;;;;;;;0.40;98.70;;;;;;4997045;28;19910;-90
2022/01/09 04:17:58;;;;;;;;;;;0.40;98.80;;;;;;5014548;28;20281;-90
2022/01/09 04:20:26;;;;;;;;;;;0.50;98.70;;;;;;4997326;28;20272;-90
2022/01/09 04:22:52;;;;;;;;;;;0.50;98.90;;;;;;4997809;28;20015;-90
2022/01/09 04:25:18;;;;;;;;;;;0.40;98.70;;;;;;4997587;28;20356;-90
2022/01/09 04:27:44;;;;;;;;;;;0.50;98.90;;;;;;4997245;28;19920;-90
2022/01/09 04:30:10;;;;;;;;;;;0.40;98.90;;;;;;5014558;28;20000;-90
2022/01/09 04:32:35;;;;;;;;;;;0.40;99.00;;;;;;5014507;28;19944;-90
2022/01/09 04:35:01;;;;;;;;;;;0.50;99.30;;;;;;4996998;28;19937;-90
2022/01/09 04:37:27;;;;;;;;;;;0.50;99.20;;;;;;4996950;28;19922;-90
2022/01/09 04:39:54;;;;;;;;;;;0.40;99.40;;;;;;4997333;28;20386;-90
2022/01/09 04:42:23;;;;;;;;;;;0.40;99.20;;;;;;4997357;28;19910;-90
2022/01/09 04:44:49;;;;;;;;;;;0.40;99.20;;;;;;4997335;28;20283;-90
2022/01/09 04:47:16;;;;;;;;;;;0.40;99.40;;;;;;4996924;28;19914;-90
2022/01/09 04:49:44;;;;;;;;;;;0.50;99.80;;;;;;4997591;28;19982;-90
2022/01/09 04:52:14;;;;;;;;;;;0.50;99.60;;;;;;4997012;28;19936;-90
2022/01/09 04:54:40;;;;;;;;;;;0.50;99.70;;;;;;4996688;28;19910;-90
2022/01/09 04:57:06;;;;;;;;;;;0.50;99.90;;;;;;4996984;28;19909;-90
2022/01/09 04:59:31;;;;;;;;;;;0.50;99.80;;;;;;4996949;28;20429;-90
2022/01/09 05:01:57;;;;;;;;;;;0.50;99.80;;;;;;5014133;28;19909;-90
2022/01/09 05:04:23;;;;;;;;;;;0.50;99.90;;;;;;4997058;28;20272;-90
2022/01/09 05:06:48;;;;;;;;;;;0.50;99.90;;;;;;4996766;28;19921;-90
2022/01/09 05:09:14;;;;;;;;;;;0.60;99.70;;;;;;4996996;28;19920;-90
2022/01/09 05:11:40;;;;;;;;;;;0.50;99.70;;;;;;4996827;28;19992;-89
2022/01/09 05:14:05;;;;;;;;;;;0.50;99.90;;;;;;4997221;28;19910;-90
2022/01/09 05:16:31;;;;;;;;;;;0.60;99.90;;;;;;4996532;28;19916;-90
2022/01/09 05:19:06;;;;;;;;;;;0.60;99.90;;;;;;5014755;28;19936;-90
2022/01/09 05:21:32;;;;;;;;;;;0.60;99.90;;;;;;4996729;28;19918;-90
2022/01/09 05:23:57;;;;;;;;;;;0.60;99.90;;;;;;5017410;28;19992;-90
2022/01/09 05:26:23;;;;;;;;;;;0.60;99.90;;;;;;5000207;28;19965;-90
2022/01/09 05:28:49;;;;;;;;;;;0.60;99.90;;;;;;5000098;28;20419;-90
2022/01/09 05:31:14;;;;;;;;;;;0.70;99.90;;;;;;5017463;28;20463;-90
2022/01/09 05:33:40;;;;;;;;;;;0.60;99.90;;;;;;5017636;28;19964;-90
2022/01/09 05:36:05;;;;;;;;;;;0.60;99.90;;;;;;4999872;28;19975;-90
2022/01/09 05:38:31;;;;;;;;;;;0.60;99.90;;;;;;5017247;28;20316;-89
2022/01/09 05:40:57;;;;;;;;;;;0.60;99.90;;;;;;4999979;28;19916;-90
2022/01/09 05:43:23;;;;;;;;;;;0.60;99.90;;;;;;4999854;28;19920;-90
2022/01/09 05:45:48;;;;;;;;;;;0.60;99.90;;;;;;4999764;28;19949;-90
2022/01/09 05:48:14;;;;;;;;;;;0.60;99.90;;;;;;4999868;28;19919;-90
2022/01/09 05:50:39;;;;;;;;;;;0.60;99.90;;;;;;4999977;28;19972;-90
2022/01/09 05:53:05;;;;;;;;;;;0.60;99.90;;;;;;4999682;28;19916;-90
2022/01/09 05:55:30;;;;;;;;;;;0.60;99.90;;;;;;4999508;28;19909;-90
2022/01/09 05:57:56;;;;;;;;;;;0.50;99.90;;;;;;4999435;28;19915;-90
2022/01/09 06:00:22;;;;;;;;;;;0.60;99.90;;;;;;4999325;28;19937;-90
2022/01/09 06:02:48;;;;;;;;;;;0.60;99.90;;;;;;4999547;28;19910;-89
2022/01/09 06:05:14;;;;;;;;;;;0.70;99.90;;;;;;4999277;28;19956;-90
2022/01/09 06:07:40;;;;;;;;;;;0.70;99.90;;;;;;4999622;28;19913;-90
2022/01/09 06:10:06;;;;;;;;;;;0.80;99.90;;;;;;5016838;28;20411;-90
2022/01/09 06:12:32;;;;;;;;;;;0.70;99.90;;;;;;4999256;28;19910;-89
2022/01/09 06:14:58;;;;;;;;;;;0.80;99.90;;;;;;4999503;28;20390;-90
2022/01/09 06:17:24;;;;;;;;;;;0.80;99.90;;;;;;4999456;28;19910;-90
2022/01/09 06:19:50;;;;;;;;;;;0.90;99.90;;;;;;4999577;28;19909;-90
2022/01/09 06:22:18;;;;;;;;;;;0.90;99.90;;;;;;4999250;28;19918;-90
2022/01/09 06:24:50;;;;;;;;;;;0.90;99.90;;;;;;4999376;28;19909;-90
2022/01/09 06:27:19;;;;;;;;;;;1.00;99.90;;;;;;5016587;28;19913;-90
2022/01/09 06:29:44;;;;;;;;;;;1.00;99.90;;;;;;4999536;28;19921;-90
2022/01/09 06:32:10;;;;;;;;;;;1.00;99.90;;;;;;4998822;28;19910;-90
2022/01/09 06:34:35;;;;;;;;;;;1.00;99.90;;;;;;5015972;28;20307;-90
2022/01/09 06:37:01;;;;;;;;;;;1.00;99.90;;;;;;4998304;28;20288;-90
2022/01/09 06:39:27;;;;;;;;;;;1.00;99.90;;;;;;4998840;28;19910;-90
2022/01/09 06:41:52;;;;;;;;;;;1.00;99.90;;;;;;4998418;28;20269;-90
2022/01/09 06:44:18;;;;;;;;;;;1.10;99.80;;;;;;4998824;28;20368;-90
2022/01/09 06:46:44;;;;;;;;;;;1.10;99.80;;;;;;4998784;28;19913;-90
2022/01/09 06:49:09;;;;;;;;;;;1.10;99.90;;;;;;4998952;28;19940;-90
2022/01/09 06:51:35;;;;;;;;;;;1.10;99.80;;;;;;4998809;28;19932;-90
2022/01/09 06:54:01;;;;;;;;;;;1.10;99.80;;;;;;4998492;28;19956;-89
2022/01/09 06:56:26;;;;;;;;;;;1.10;99.90;;;;;;4998305;28;19909;-90
2022/01/09 06:58:52;;;;;;;;;;;1.10;99.90;;;;;;4998944;28;19910;-90
2022/01/09 07:01:18;;;;;;;;;;;1.10;99.90;;;;;;4998541;28;19909;-90
2022/01/09 07:03:43;;;;;;;;;;;1.20;99.90;;;;;;4998401;28;19909;-89
2022/01/09 07:06:09;;;;;;;;;;;1.20;99.80;;;;;;4998455;28;19952;-90
2022/01/09 07:08:35;;;;;;;;;;;1.20;99.80;;;;;;4998075;28;19920;-90
2022/01/09 07:11:02;;;;;;;;;;;1.20;99.80;;;;;;4998049;28;19941;-90
2022/01/09 07:13:27;;;;;;;;;;;1.20;99.80;;;;;;5015809;28;19933;-90
2022/01/09 07:15:53;;;;;;;;;;;1.20;99.80;;;;;;4998663;28;20356;-89
2022/01/09 07:18:18;;;;;;;;;;;1.20;99.90;;;;;;4998436;28;19917;-90
2022/01/09 07:20:44;;;;;;;;;;;1.30;99.90;;;;;;4998330;28;19909;-90
2022/01/09 07:23:09;;;;;;;;;;;1.20;99.90;;;;;;5000038;28;19924;-89
2022/01/09 07:25:35;;;;;;;;;;;1.30;99.90;;;;;;5018650;28;19909;-90
2022/01/09 07:28:02;;;;;;;;;;;1.30;99.80;;;;;;5000996;28;19914;-90
2022/01/09 07:30:28;;;;;;;;;;;1.30;99.70;;;;;;4999447;28;19921;-90
2022/01/09 07:32:54;;;;;;;;;;;1.40;99.70;;;;;;4999199;28;20404;-90
2022/01/09 07:35:19;;;;;;;;;;;1.40;99.90;;;;;;4998734;28;19992;-90
2022/01/09 07:37:45;;;;;;;;;;;1.40;99.90;;;;;;4999185;28;19965;-90
2022/01/09 07:40:11;;;;;;;;;;;1.40;99.90;;;;;;4999647;28;19988;-90
2022/01/09 07:42:37;;;;;;;;;;;1.40;99.90;;;;;;4999125;28;19914;-90
2022/01/09 07:45:06;;;;;;;;;;;1.40;99.90;;;;;;4997349;28;19913;-90
2022/01/09 07:47:35;;;;;;;;;;;1.30;99.80;;;;;;4998413;28;19914;-90
2022/01/09 07:50:00;;;;;;;;;;;1.30;99.90;;;;;;4998268;28;20262;-90
2022/01/09 07:52:26;;;;;;;;;;;1.30;99.90;;;;;;4997872;28;19914;-90
2022/01/09 07:54:51;;;;;;;;;;;1.30;99.90;;;;;;4997732;28;20000;-90
2022/01/09 07:57:17;;;;;;;;;;;1.30;99.90;;;;;;5015444;28;20384;-90
2022/01/09 07:59:43;;;;;;;;;;;1.20;99.90;;;;;;4997820;28;20419;-90
2022/01/09 08:02:09;;;;;;;;;;;1.20;99.90;;;;;;4997942;28;19961;-89
2022/01/09 08:04:35;;;;;;;;;;;1.20;99.90;;;;;;4997709;28;19932;-90
2022/01/09 08:07:00;;;;;;;;;;;1.10;99.90;;;;;;4997870;28;20356;-90
2022/01/09 08:09:26;;;;;;;;;;;1.10;99.90;;;;;;5015381;28;19967;-90
2022/01/09 08:11:52;;;;;;;;;;;1.20;99.90;;;;;;4997791;28;19964;-90
2022/01/09 08:14:17;;;;;;;;;;;1.20;99.90;;;;;;4998522;28;19917;-91
2022/01/09 08:16:43;;;;;;;;;;;1.20;99.90;;;;;;4998635;28;19921;-90
2022/01/09 08:19:08;;;;;;;;;;;1.30;99.90;;;;;;4998460;28;19914;-91
2022/01/09 08:21:34;;;;;;;;;;;1.30;99.90;;;;;;5002437;28;19985;-90
2022/01/09 08:24:00;;;;;;;;;;;1.30;99.90;;;;;;5002790;28;19914;-90
2022/01/09 08:26:25;;;;;;;;;;;1.40;99.90;;;;;;5003409;28;19910;-90
2022/01/09 08:28:51;;;;;;;;;;;1.50;99.90;;;;;;5000039;28;19918;-89
2022/01/09 08:31:18;;;;;;;;;;;1.50;99.90;;;;;;4997722;28;19924;-90
2022/01/09 08:33:43;;;;;;;;;;;1.50;99.90;;;;;;4997639;28;19960;-90
2022/01/09 08:36:12;;;;;;;;;;;1.60;99.90;;;;;;4998202;28;19925;-91
2022/01/09 08:38:39;;;;;;;;;;;1.60;99.90;;;;;;4997942;28;20379;-90
2022/01/09 08:41:04;;;;;;;;;;;1.60;99.90;;;;;;4998453;28;19992;-90
2022/01/09 08:43:31;;;;;;;;;;;1.60;99.90;;;;;;4998213;28;19949;-91
2022/01/09 08:45:57;;;;;;;;;;;1.60;99.90;;;;;;4998117;28;19988;-91
2022/01/09 08:48:22;;;;;;;;;;;1.70;99.80;;;;;;4997627;28;20419;-90
2022/01/09 08:50:48;;;;;;;;;;;1.70;99.90;;;;;;4998129;28;19913;-91
2022/01/09 08:53:15;;;;;;;;;;;1.70;99.90;;;;;;4997976;28;19909;-91
2022/01/09 08:55:41;;;;;;;;;;;1.70;99.90;;;;;;4997694;28;19914;-90
2022/01/09 08:58:06;;;;;;;;;;;1.80;99.90;;;;;;5001566;28;20385;-90
2022/01/09 09:00:32;;;;;;;;;;;1.80;99.90;;;;;;5002911;28;20003;-91
2022/01/09 09:02:57;;;;;;;;;;;1.70;99.90;;;;;;5001295;28;19957;-90
2022/01/09 09:05:23;;;;;;;;;;;1.70;99.90;;;;;;5019429;28;19913;-90
2022/01/09 09:07:49;;;;;;;;;;;1.70;99.90;;;;;;5018562;28;19913;-91
2022/01/09 09:10:15;;;;;;;;;;;1.80;99.90;;;;;;5001635;28;19914;-90
2022/01/09 09:12:40;;;;;;;;;;;1.80;99.90;;;;;;5018499;28;20008;-90
2022/01/09 09:15:06;;;;;;;;;;;1.90;99.90;;;;;;5000867;28;19945;-90
2022/01/09 09:17:32;;;;;;;;;;;1.90;99.90;;;;;;5001145;28;19909;-90
2022/01/09 09:19:57;;;;;;;;;;;2.00;99.90;;;;;;5000710;28;19976;-90
2022/01/09 09:22:23;;;;;;;;;;;2.00;99.90;;;;;;5000659;28;19960;-90
2022/01/09 09:24:49;;;;;;;;;;;2.00;99.60;;;;;;5001456;28;19910;-91
2022/01/09 09:27:15;;;;;;;;;;;1.90;99.30;;;;;;5001810;28;19960;-90
2022/01/09 09:29:41;;;;;;;;;;;2.00;99.30;;;;;;5001978;28;19913;-90
2022/01/09 09:32:07;;;;;;;;;;;1.90;99.30;;;;;;5001332;28;19963;-90
2022/01/09 09:34:32;;;;;;;;;;;1.90;99.70;;;;;;5001078;28;19964;-90
2022/01/09 09:36:58;;;;;;;;;;;1.90;99.60;;;;;;5000598;28;19922;-90
2022/01/09 09:39:24;;;;;;;;;;;1.90;99.60;;;;;;5001084;28;19909;-90
2022/01/09 09:41:50;;;;;;;;;;;2.00;99.60;;;;;;5018095;28;19909;-90
2022/01/09 09:44:16;;;;;;;;;;;2.00;99.70;;;;;;5000743;28;19917;-90
2022/01/09 09:46:46;;;;;;;;;;;2.00;99.50;;;;;;5000600;28;19910;-91
2022/01/09 09:49:12;;;;;;;;;;;2.00;99.60;;;;;;5000304;28;19981;-91
2022/01/09 09:51:37;;;;;;;;;;;2.00;99.40;;;;;;5000571;28;19926;-90
2022/01/09 09:54:03;;;;;;;;;;;2.00;99.60;;;;;;5000359;28;20004;-90
2022/01/09 09:56:28;;;;;;;;;;;1.90;99.80;;;;;;5000795;28;19910;-90
2022/01/09 09:58:57;;;;;;;;;;;2.00;99.90;;;;;;5001114;28;19956;-90
2022/01/09 10:01:23;;;;;;;;;;;2.00;99.90;;;;;;5000673;28;19913;-90
2022/01/09 10:03:53;;;;;;;;;;;2.00;99.90;;;;;;4999661;28;20357;-90
2022/01/09 10:06:37;;;;;;;;;;;2.10;99.90;;;;;;5000562;28;19909;-91
2022/01/09 10:09:07;;;;;;;;;;;2.10;99.80;;;;;;5000397;28;19968;-90
2022/01/09 10:11:45;;;;;;;;;;;2.20;99.90;;;;;;5001909;28;20033;-90
2022/01/09 10:14:12;;;;;;;;;;;2.20;99.90;;;;;;5017119;28;20360;-90
2022/01/09 10:16:37;;;;;;;;;;;2.20;99.90;;;;;;5000843;28;19914;-90
2022/01/09 10:19:03;;;;;;;;;;;2.20;99.80;;;;;;5001736;28;19942;-89
2022/01/09 10:21:28;;;;;;;;;;;2.20;99.70;;;;;;5018547;28;19918;-90
2022/01/09 10:24:02;;;;;;;;;;;2.20;99.90;;;;;;4999982;28;20389;-90
2022/01/09 10:26:28;;;;;;;;;;;2.20;99.80;;;;;;5001250;28;19917;-92
2022/01/09 10:28:53;;;;;;;;;;;2.20;99.90;;;;;;5003040;28;19979;-91
2022/01/09 10:31:19;;;;;;;;;;;2.20;99.90;;;;;;4999021;28;19914;-90
2022/01/09 10:33:58;;;;;;;;;;;2.20;99.90;;;;;;4999002;28;19909;-90
2022/01/09 10:36:33;;;;;;;;;;;2.20;99.90;;;;;;4999063;28;19949;-92
2022/01/09 10:39:03;;;;;;;;;;;2.20;99.90;;;;;;4999840;28;19916;-90
2022/01/09 10:41:44;;;;;;;;;;;2.20;99.90;;;;;;4998740;28;19914;-90
2022/01/09 10:44:13;;;;;;;;;;;2.30;99.90;;;;;;4999379;28;19917;-91
2022/01/09 10:46:38;;;;;;;;;;;2.30;99.90;;;;;;5009594;28;19914;-92
2022/01/09 10:49:04;;;;;;;;;;;2.30;99.90;;;;;;4996446;28;19972;-91
2022/01/09 10:51:30;;;;;;;;;;;2.20;99.90;;;;;;5003768;28;19913;-90
2022/01/09 10:53:59;;;;;;;;;;;2.30;99.90;;;;;;5005078;28;19913;-91
2022/01/09 10:56:25;;;;;;;;;;;2.30;99.90;;;;;;5003572;28;19972;-92
2022/01/09 10:58:51;;;;;;;;;;;2.30;99.90;;;;;;5001441;28;20023;-92
2022/01/09 11:01:23;;;;;;;;;;;2.30;99.90;;;;;;5003112;28;19914;-92
2022/01/09 11:04:07;;;;;;;;;;;2.30;99.90;;;;;;5016540;28;19913;-93
2022/01/09 11:06:37;;;;;;;;;;;2.30;99.90;;;;;;4980283;28;20021;-93
2022/01/09 11:09:03;;;;;;;;;;;2.30;99.90;;;;;;4983572;28;19917;-92
2022/01/09 11:11:34;;;;;;;;;;;2.30;99.90;;;;;;4999816;28;19937;-91
2022/01/09 11:14:04;;;;;;;;;;;2.40;99.90;;;;;;4996597;28;19929;-92
2022/01/09 11:16:34;;;;;;;;;;;2.40;99.90;;;;;;5016125;28;19940;-91
2022/01/09 11:19:01;;;;;;;;;;;2.40;99.90;;;;;;5015915;28;19909;-87
2022/01/09 11:21:27;;;;;;;;;;;2.50;99.90;;;;;;4997275;28;20276;-89
2022/01/09 11:24:12;;;;;;;;;;;2.50;99.90;;;;;;4997405;28;19926;-89
2022/01/09 11:26:58;;;;;;;;;;;2.60;99.90;;;;;;5015714;28;19913;-90
2022/01/09 11:29:28;;;;;;;;;;;2.60;99.90;;;;;;4997128;28;19968;-89
2022/01/09 11:32:14;;;;;;;;;;;2.60;99.90;;;;;;4998386;28;19916;-90
2022/01/09 11:34:40;;;;;;;;;;;2.50;99.90;;;;;;4970705;28;19916;-90
2022/01/09 11:37:18;;;;;;;;;;;2.50;99.90;;;;;;4997787;28;19922;-89
2022/01/09 11:39:44;;;;;;;;;;;2.50;99.90;;;;;;4998987;28;19921;-89
2022/01/09 11:42:13;;;;;;;;;;;2.50;99.90;;;;;;4997253;28;19914;-88
2022/01/09 11:44:53;;;;;;;;;;;2.50;99.90;;;;;;4998459;28;19910;-89
2022/01/09 11:47:19;;;;;;;;;;;2.50;99.90;;;;;;4998629;28;19920;-93
2022/01/09 11:49:54;;;;;;;;;;;2.50;99.90;;;;;;5002614;28;20170;-92
2022/01/09 11:52:20;;;;;;;;;;;2.60;99.90;;;;;;5006843;28;20370;-93
2022/01/09 11:55:00;;;;;;;;;;;2.70;99.90;;;;;;5002469;28;19964;-91
2022/01/09 11:57:36;;;;;;;;;;;2.70;99.90;;;;;;5013687;28;20241;-90
2022/01/09 12:00:03;;;;;;;;;;;2.80;99.90;;;;;;4995581;28;19909;-90
2022/01/09 12:02:30;;;;;;;;;;;2.80;99.90;;;;;;5018812;28;19910;-93
2022/01/09 12:04:57;;;;;;;;;;;2.80;99.90;;;;;;4998071;28;19914;-94
2022/01/09 12:07:32;;;;;;;;;;;2.80;99.90;;;;;;4998056;28;19913;-91
2022/01/09 12:09:59;;;;;;;;;;;2.90;99.90;;;;;;4997824;28;19914;-92
2022/01/09 12:12:36;;;;;;;;;;;2.90;99.90;;;;;;4997192;28;19909;-90
2022/01/09 12:15:05;;;;;;;;;;;2.90;99.90;;;;;;4995950;28;19914;-91
2022/01/09 12:17:34;;;;;;;;;;;2.90;99.90;;;;;;4996291;28;19914;-91
2022/01/09 12:20:07;;;;;;;;;;;2.90;99.90;;;;;;4997598;28;19913;-89
2022/01/09 12:22:39;;;;;;;;;;;2.90;99.90;;;;;;4997371;28;20000;-91
2022/01/09 12:25:28;;;;;;;;;;;2.90;99.90;;;;;;4998420;28;20364;-91
2022/01/09 12:27:54;;;;;;;;;;;2.80;99.90;;;;;;4986666;28;20419;-90
2022/01/09 12:30:41;;;;;;;;;;;2.80;99.90;;;;;;5015199;28;20005;-88
2022/01/09 12:33:16;;;;;;;;;;;2.80;99.90;;;;;;5017389;28;19920;-89
2022/01/09 12:35:45;;;;;;;;;;;2.70;99.90;;;;;;5001342;28;19921;-88
2022/01/09 12:38:16;;;;;;;;;;;2.70;99.90;;;;;;5001876;28;20365;-91
2022/01/09 12:40:44;;;;;;;;;;;2.70;99.90;;;;;;4984090;28;19944;-94
2022/01/09 12:43:10;;;;;;;;;;;2.70;99.90;;;;;;5001366;28;19910;-95
2022/01/09 12:45:37;;;;;;;;;;;2.70;99.90;;;;;;4997768;28;19920;-92
2022/01/09 12:48:03;;;;;;;;;;;2.70;99.90;;;;;;5000655;28;19944;-91
2022/01/09 12:50:29;;;;;;;;;;;2.80;99.90;;;;;;4998121;28;19944;-90
2022/01/09 12:53:11;;;;;;;;;;;2.80;99.90;;;;;;4999937;28;19913;-89
2022/01/09 12:55:51;;;;;;;;;;;2.80;99.90;;;;;;5000471;28;19940;-96
2022/01/09 12:58:21;;;;;;;;;;;2.80;99.90;;;;;;4993938;28;20332;-90
2022/01/09 13:00:46;;;;;;;;;;;2.80;99.90;;;;;;5000553;28;19916;-88
2022/01/09 13:03:16;;;;;;;;;;;2.80;99.90;;;;;;4999961;28;19909;-90
2022/01/09 13:05:50;;;;;;;;;;;2.80;99.90;;;;;;5000747;28;20391;-91
2022/01/09 13:08:17;;;;;;;;;;;2.80;99.90;;;;;;5000535;28;19913;-91
2022/01/09 13:10:43;;;;;;;;;;;2.80;99.90;;;;;;4998552;28;20303;-90
2022/01/09 13:13:10;;;;;;;;;;;2.80;99.90;;;;;;4992868;28;19917;-90
2022/01/09 13:15:37;;;;;;;;;;;2.80;99.90;;;;;;5000381;28;20245;-93
2022/01/09 13:18:04;;;;;;;;;;;2.80;99.90;;;;;;5000655;28;19936;-88
2022/01/09 13:20:31;;;;;;;;;;;2.80;99.90;;;;;;5015349;28;19988;-89
2022/01/09 13:23:07;;;;;;;;;;;2.80;99.90;;;;;;5000053;28;19967;-92
2022/01/09 13:26:14;;;;;;;;;;;2.80;99.90;;;;;;5023532;28;19918;-95
2022/01/09 13:28:50;;;;;;;;;;;2.90;99.90;;;;;;4985660;28;20168;-92
2022/01/09 13:31:16;;;;;;;;;;;2.80;99.90;;;;;;4998790;28;19921;-93
2022/01/09 13:33:49;;;;;;;;;;;2.90;99.90;;;;;;5000506;28;19920;-92
2022/01/09 13:36:25;;;;;;;;;;;2.90;99.90;;;;;;5000581;28;19925;-92
2022/01/09 13:38:51;;;;;;;;;;;2.90;99.90;;;;;;5001189;28;19963;-92
2022/01/09 13:41:18;;;;;;;;;;;2.90;99.90;;;;;;5000791;28;20420;-92
2022/01/09 13:43:43;;;;;;;;;;;2.90;99.90;;;;;;5001040;28;19933;-91
2022/01/09 13:46:12;;;;;;;;;;;2.90;99.90;;;;;;5003146;28;19993;-94
2022/01/09 13:48:51;;;;;;;;;;;2.90;99.90;;;;;;5001501;28;19917;-90
2022/01/09 13:51:36;;;;;;;;;;;2.80;99.90;;;;;;5000878;28;20009;-92
2022/01/09 13:54:08;;;;;;;;;;;2.80;99.90;;;;;;5000006;28;19914;-91
2022/01/09 13:56:35;;;;;;;;;;;2.80;99.90;;;;;;5017131;28;19916;-93
2022/01/09 13:59:02;;;;;;;;;;;2.80;99.90;;;;;;4999464;28;19921;-87
2022/01/09 14:01:50;;;;;;;;;;;2.80;99.90;;;;;;5001320;28;19910;-91
2022/01/09 14:04:20;;;;;;;;;;;2.80;99.90;;;;;;5013129;28;19917;-91
2022/01/09 14:07:03;;;;;;;;;;;2.90;99.90;;;;;;4997314;28;20408;-94
2022/01/09 14:09:30;;;;;;;;;;;2.90;99.90;;;;;;5000977;28;19913;-92
2022/01/09 14:12:18;;;;;;;;;;;2.90;99.90;;;;;;5002272;28;19913;-91
2022/01/09 14:14:45;;;;;;;;;;;2.90;99.90;;;;;;4992321;28;19910;-94
2022/01/09 14:17:26;;;;;;;;;;;2.80;99.90;;;;;;5003858;28;19988;-94
2022/01/09 14:19:55;;;;;;;;;;;2.90;99.90;;;;;;5007347;28;19917;-94
2022/01/09 14:22:34;;;;;;;;;;;2.90;99.90;;;;;;5002206;28;19914;-94
2022/01/09 14:25:09;;;;;;;;;;;2.90;99.90;;;;;;5007507;28;20385;-93
2022/01/09 14:27:40;;;;;;;;;;;2.90;99.90;;;;;;5021675;28;19984;-95
2022/01/09 14:30:32;;;;;;;;;;;2.90;99.90;;;;;;5018972;28;19915;-93
2022/01/09 14:33:13;;;;;;;;;;;2.90;99.90;;;;;;5024948;28;19918;-96
2022/01/09 14:36:03;;;;;;;;;;;;;;;;;;;;;
2022/01/09 14:38:31;;;;;;;;;;;2.90;99.90;;;;;;5026984;28;19960;-95